sensor_id;sensor_type;location;lat;lon;timestamp;pressure;altitude;pressure_sealevel;temperature;humidity
60487;BME280;46327;39.866;-0.072;2022-08-04T00:02:24;101535.81;;;29.71;41.43
60487;BME280;46327;39.866;-0.072;2022-08-04T00:04:56;101535.99;;;29.95;41.47
60487;BME280;46327;39.866;-0.072;2022-08-04T00:07:34;101539.56;;;29.82;41.55
60487;BME280;46327;39.866;-0.072;2022-08-04T00:10:06;101538.87;;;29.55;41.78
60487;BME280;46327;39.866;-0.072;2022-08-04T00:12:37;101539.53;;;29.51;42.10
60487;BME280;46327;39.866;-0.072;2022-08-04T00:15:10;101531.54;;;29.25;42.84
60487;BME280;46327;39.866;-0.072;2022-08-04T00:17:44;101527.15;;;29.28;43.02
60487;BME280;46327;39.866;-0.072;2022-08-04T00:20:16;101530.39;;;29.03;43.51
60487;BME280;46327;39.866;-0.072;2022-08-04T00:22:45;101529.51;;;29.19;43.16
60487;BME280;46327;39.866;-0.072;2022-08-04T00:25:13;101528.06;;;28.54;44.36
60487;BME280;46327;39.866;-0.072;2022-08-04T00:27:40;101522.52;;;28.91;44.04
60487;BME280;46327;39.866;-0.072;2022-08-04T00:30:08;101519.77;;;28.49;43.99
60487;BME280;46327;39.866;-0.072;2022-08-04T00:32:39;101516.48;;;28.61;43.70
60487;BME280;46327;39.866;-0.072;2022-08-04T00:35:09;101512.87;;;28.78;43.65
60487;BME280;46327;39.866;-0.072;2022-08-04T00:37:39;101516.71;;;28.80;43.23
60487;BME280;46327;39.866;-0.072;2022-08-04T00:43:14;101514.15;;;28.23;43.60
60487;BME280;46327;39.866;-0.072;2022-08-04T00:46:21;101510.25;;;28.36;43.49
60487;BME280;46327;39.866;-0.072;2022-08-04T00:49:07;101508.02;;;28.88;42.67
60487;BME280;46327;39.866;-0.072;2022-08-04T00:51:46;101507.12;;;28.50;43.04
60487;BME280;46327;39.866;-0.072;2022-08-04T00:54:32;101507.08;;;28.11;43.59
60487;BME280;46327;39.866;-0.072;2022-08-04T00:57:14;101501.32;;;28.68;42.55
60487;BME280;46327;39.866;-0.072;2022-08-04T00:59:58;101496.54;;;28.33;42.75
60487;BME280;46327;39.866;-0.072;2022-08-04T01:02:35;101494.98;;;28.82;41.44
60487;BME280;46327;39.866;-0.072;2022-08-04T01:05:06;101491.31;;;28.09;42.27
60487;BME280;46327;39.866;-0.072;2022-08-04T01:07:52;101489.98;;;27.99;42.35
60487;BME280;46327;39.866;-0.072;2022-08-04T01:10:31;101489.53;;;28.31;42.12
60487;BME280;46327;39.866;-0.072;2022-08-04T01:13:14;101486.39;;;28.03;42.30
60487;BME280;46327;39.866;-0.072;2022-08-04T01:15:56;101481.54;;;28.53;41.19
60487;BME280;46327;39.866;-0.072;2022-08-04T01:18:34;101484.63;;;28.75;40.81
60487;BME280;46327;39.866;-0.072;2022-08-04T01:21:21;101486.88;;;28.22;41.08
60487;BME280;46327;39.866;-0.072;2022-08-04T01:24:38;101486.11;;;27.98;40.95
60487;BME280;46327;39.866;-0.072;2022-08-04T01:27:14;101483.33;;;28.81;40.57
60487;BME280;46327;39.866;-0.072;2022-08-04T01:29:47;101483.18;;;28.52;39.83
60487;BME280;46327;39.866;-0.072;2022-08-04T01:32:19;101483.19;;;29.24;39.24
60487;BME280;46327;39.866;-0.072;2022-08-04T01:34:51;101485.12;;;29.01;39.56
60487;BME280;46327;39.866;-0.072;2022-08-04T01:37:42;101478.63;;;28.45;40.23
60487;BME280;46327;39.866;-0.072;2022-08-04T01:40:14;101478.55;;;28.14;40.42
60487;BME280;46327;39.866;-0.072;2022-08-04T01:42:43;101480.70;;;28.04;40.56
60487;BME280;46327;39.866;-0.072;2022-08-04T01:45:12;101486.85;;;29.27;39.67
60487;BME280;46327;39.866;-0.072;2022-08-04T01:47:47;101480.77;;;28.81;39.71
60487;BME280;46327;39.866;-0.072;2022-08-04T01:50:16;101476.13;;;28.41;39.94
60487;BME280;46327;39.866;-0.072;2022-08-04T01:52:44;101477.67;;;28.16;40.57
60487;BME280;46327;39.866;-0.072;2022-08-04T01:55:13;101479.23;;;28.49;39.52
60487;BME280;46327;39.866;-0.072;2022-08-04T01:57:42;101480.14;;;28.61;39.60
60487;BME280;46327;39.866;-0.072;2022-08-04T02:00:12;101473.64;;;28.14;40.15
60487;BME280;46327;39.866;-0.072;2022-08-04T02:02:40;101474.50;;;28.80;39.18
60487;BME280;46327;39.866;-0.072;2022-08-04T02:05:09;101469.37;;;28.47;39.49
60487;BME280;46327;39.866;-0.072;2022-08-04T02:07:48;101469.67;;;28.05;39.84
60487;BME280;46327;39.866;-0.072;2022-08-04T02:10:26;101471.07;;;27.77;40.00
60487;BME280;46327;39.866;-0.072;2022-08-04T02:13:02;101470.95;;;28.61;39.36
60487;BME280;46327;39.866;-0.072;2022-08-04T02:15:43;101467.17;;;28.68;38.96
60487;BME280;46327;39.866;-0.072;2022-08-04T02:18:21;101469.99;;;28.42;38.76
60487;BME280;46327;39.866;-0.072;2022-08-04T02:20:55;101469.98;;;28.81;38.59
60487;BME280;46327;39.866;-0.072;2022-08-04T02:23:29;101474.80;;;28.52;38.70
60487;BME280;46327;39.866;-0.072;2022-08-04T02:25:58;101470.70;;;28.39;38.48
60487;BME280;46327;39.866;-0.072;2022-08-04T02:28:32;101466.03;;;28.36;38.44
60487;BME280;46327;39.866;-0.072;2022-08-04T02:31:09;101466.81;;;28.07;38.51
60487;BME280;46327;39.866;-0.072;2022-08-04T02:33:41;101465.33;;;28.43;38.48
60487;BME280;46327;39.866;-0.072;2022-08-04T02:36:10;101461.64;;;27.97;38.89
60487;BME280;46327;39.866;-0.072;2022-08-04T02:38:50;101457.65;;;27.79;38.96
60487;BME280;46327;39.866;-0.072;2022-08-04T02:41:22;101459.86;;;28.39;38.73
60487;BME280;46327;39.866;-0.072;2022-08-04T02:43:54;101459.09;;;28.07;39.08
60487;BME280;46327;39.866;-0.072;2022-08-04T02:46:22;101455.89;;;27.43;40.16
60487;BME280;46327;39.866;-0.072;2022-08-04T02:48:51;101459.68;;;27.75;39.55
60487;BME280;46327;39.866;-0.072;2022-08-04T02:51:21;101458.72;;;27.69;39.50
60487;BME280;46327;39.866;-0.072;2022-08-04T02:53:52;101455.42;;;27.97;38.95
60487;BME280;46327;39.866;-0.072;2022-08-04T02:56:21;101452.02;;;28.08;38.88
60487;BME280;46327;39.866;-0.072;2022-08-04T02:58:51;101451.35;;;27.59;39.33
60487;BME280;46327;39.866;-0.072;2022-08-04T03:01:20;101450.94;;;27.59;39.15
60487;BME280;46327;39.866;-0.072;2022-08-04T03:03:57;101449.18;;;27.39;39.37
60487;BME280;46327;39.866;-0.072;2022-08-04T03:06:48;101453.88;;;28.12;39.10
60487;BME280;46327;39.866;-0.072;2022-08-04T03:09:39;101450.97;;;27.29;39.40
60487;BME280;46327;39.866;-0.072;2022-08-04T03:12:34;101451.86;;;26.69;39.86
60487;BME280;46327;39.866;-0.072;2022-08-04T03:15:37;101452.86;;;27.09;39.25
60487;BME280;46327;39.866;-0.072;2022-08-04T03:18:38;101455.05;;;27.35;39.26
60487;BME280;46327;39.866;-0.072;2022-08-04T03:21:37;101455.33;;;27.36;39.31
60487;BME280;46327;39.866;-0.072;2022-08-04T03:24:27;101455.17;;;27.63;38.73
60487;BME280;46327;39.866;-0.072;2022-08-04T03:27:17;101451.33;;;27.24;38.86
60487;BME280;46327;39.866;-0.072;2022-08-04T03:30:03;101454.53;;;27.74;38.77
60487;BME280;46327;39.866;-0.072;2022-08-04T03:32:56;101451.29;;;27.00;39.69
60487;BME280;46327;39.866;-0.072;2022-08-04T03:38:05;101449.29;;;27.89;38.97
60487;BME280;46327;39.866;-0.072;2022-08-04T03:40:54;101444.08;;;26.55;40.17
60487;BME280;46327;39.866;-0.072;2022-08-04T03:44:25;101440.05;;;27.15;39.24
60487;BME280;46327;39.866;-0.072;2022-08-04T03:47:21;101437.30;;;27.04;39.31
60487;BME280;46327;39.866;-0.072;2022-08-04T03:50:17;101436.36;;;27.57;38.61
60487;BME280;46327;39.866;-0.072;2022-08-04T03:54:41;101435.28;;;27.66;37.88
60487;BME280;46327;39.866;-0.072;2022-08-04T03:57:29;101434.51;;;27.35;38.37
60487;BME280;46327;39.866;-0.072;2022-08-04T04:00:06;101436.94;;;27.48;38.06
60487;BME280;46327;39.866;-0.072;2022-08-04T04:03:28;101437.92;;;27.88;37.59
60487;BME280;46327;39.866;-0.072;2022-08-04T04:07:40;101435.87;;;27.72;37.83
60487;BME280;46327;39.866;-0.072;2022-08-04T04:10:29;101433.74;;;26.64;39.04
60487;BME280;46327;39.866;-0.072;2022-08-04T04:13:18;101430.96;;;27.41;38.62
60487;BME280;46327;39.866;-0.072;2022-08-04T04:16:04;101435.76;;;27.23;38.17
60487;BME280;46327;39.866;-0.072;2022-08-04T04:18:53;101429.95;;;27.09;38.65
60487;BME280;46327;39.866;-0.072;2022-08-04T04:21:38;101433.18;;;27.08;38.38
60487;BME280;46327;39.866;-0.072;2022-08-04T04:24:32;101434.04;;;26.81;38.91
60487;BME280;46327;39.866;-0.072;2022-08-04T04:27:10;101433.83;;;27.20;38.53
60487;BME280;46327;39.866;-0.072;2022-08-04T04:29:59;101433.50;;;27.07;38.64
60487;BME280;46327;39.866;-0.072;2022-08-04T04:32:35;101432.11;;;26.98;38.33
60487;BME280;46327;39.866;-0.072;2022-08-04T04:35:18;101432.13;;;27.07;38.33
60487;BME280;46327;39.866;-0.072;2022-08-04T04:38:02;101436.11;;;27.58;37.45
60487;BME280;46327;39.866;-0.072;2022-08-04T04:40:39;101435.57;;;27.19;37.86
60487;BME280;46327;39.866;-0.072;2022-08-04T04:43:31;101434.22;;;27.64;37.43
60487;BME280;46327;39.866;-0.072;2022-08-04T04:46:12;101434.69;;;27.32;37.59
60487;BME280;46327;39.866;-0.072;2022-08-04T04:48:50;101440.37;;;27.09;37.53
60487;BME280;46327;39.866;-0.072;2022-08-04T04:51:24;101438.70;;;26.83;37.66
60487;BME280;46327;39.866;-0.072;2022-08-04T04:54:04;101437.93;;;26.89;37.60
60487;BME280;46327;39.866;-0.072;2022-08-04T04:56:38;101440.75;;;26.60;37.80
60487;BME280;46327;39.866;-0.072;2022-08-04T04:59:10;101441.54;;;26.69;37.38
60487;BME280;46327;39.866;-0.072;2022-08-04T05:01:49;101441.78;;;27.46;36.83
60487;BME280;46327;39.866;-0.072;2022-08-04T05:07:22;101448.99;;;27.21;37.63
60487;BME280;46327;39.866;-0.072;2022-08-04T05:10:04;101449.62;;;26.72;37.32
60487;BME280;46327;39.866;-0.072;2022-08-04T05:12:49;101450.33;;;27.50;36.41
60487;BME280;46327;39.866;-0.072;2022-08-04T05:15:18;101449.01;;;27.01;36.92
60487;BME280;46327;39.866;-0.072;2022-08-04T05:17:49;101450.67;;;27.27;36.82
60487;BME280;46327;39.866;-0.072;2022-08-04T05:20:21;101451.80;;;27.23;36.78
60487;BME280;46327;39.866;-0.072;2022-08-04T05:22:54;101450.10;;;27.09;36.69
60487;BME280;46327;39.866;-0.072;2022-08-04T05:25:26;101451.14;;;27.58;36.33
60487;BME280;46327;39.866;-0.072;2022-08-04T05:27:59;101451.27;;;27.95;36.14
60487;BME280;46327;39.866;-0.072;2022-08-04T05:30:31;101452.65;;;28.09;35.37
60487;BME280;46327;39.866;-0.072;2022-08-04T05:33:03;101452.78;;;27.66;35.71
60487;BME280;46327;39.866;-0.072;2022-08-04T05:35:33;101452.49;;;27.05;36.11
60487;BME280;46327;39.866;-0.072;2022-08-04T05:38:03;101456.37;;;27.60;35.58
60487;BME280;46327;39.866;-0.072;2022-08-04T05:40:32;101459.46;;;27.36;35.64
60487;BME280;46327;39.866;-0.072;2022-08-04T05:43:00;101461.05;;;27.08;35.92
60487;BME280;46327;39.866;-0.072;2022-08-04T05:45:29;101469.58;;;28.13;34.79
60487;BME280;46327;39.866;-0.072;2022-08-04T05:47:57;101469.89;;;27.55;35.48
60487;BME280;46327;39.866;-0.072;2022-08-04T05:50:24;101471.59;;;27.72;35.34
60487;BME280;46327;39.866;-0.072;2022-08-04T05:52:52;101471.81;;;27.88;35.18
60487;BME280;46327;39.866;-0.072;2022-08-04T05:55:20;101472.53;;;27.60;35.48
60487;BME280;46327;39.866;-0.072;2022-08-04T05:57:48;101470.31;;;27.26;35.84
60487;BME280;46327;39.866;-0.072;2022-08-04T06:00:16;101475.95;;;27.85;35.34
60487;BME280;46327;39.866;-0.072;2022-08-04T06:02:46;101476.64;;;28.08;35.13
60487;BME280;46327;39.866;-0.072;2022-08-04T06:05:15;101478.12;;;28.15;34.92
60487;BME280;46327;39.866;-0.072;2022-08-04T06:07:43;101477.63;;;27.93;35.56
60487;BME280;46327;39.866;-0.072;2022-08-04T06:10:11;101476.38;;;28.00;34.93
60487;BME280;46327;39.866;-0.072;2022-08-04T06:12:44;101477.34;;;28.06;34.90
60487;BME280;46327;39.866;-0.072;2022-08-04T06:15:17;101478.38;;;27.71;35.62
60487;BME280;46327;39.866;-0.072;2022-08-04T06:17:48;101480.13;;;27.49;35.77
60487;BME280;46327;39.866;-0.072;2022-08-04T06:20:16;101481.70;;;28.37;34.74
60487;BME280;46327;39.866;-0.072;2022-08-04T06:22:48;101484.08;;;28.38;35.01
60487;BME280;46327;39.866;-0.072;2022-08-04T06:25:19;101481.57;;;28.36;35.21
60487;BME280;46327;39.866;-0.072;2022-08-04T06:27:48;101481.71;;;28.50;34.92
60487;BME280;46327;39.866;-0.072;2022-08-04T06:30:17;101485.09;;;28.28;35.11
60487;BME280;46327;39.866;-0.072;2022-08-04T06:32:45;101484.76;;;28.88;34.81
60487;BME280;46327;39.866;-0.072;2022-08-04T06:35:15;101484.94;;;28.23;35.21
60487;BME280;46327;39.866;-0.072;2022-08-04T06:37:44;101486.62;;;28.36;35.76
60487;BME280;46327;39.866;-0.072;2022-08-04T06:40:14;101488.80;;;28.49;35.38
60487;BME280;46327;39.866;-0.072;2022-08-04T06:42:42;101489.75;;;28.83;34.97
60487;BME280;46327;39.866;-0.072;2022-08-04T06:45:12;101491.27;;;28.45;34.77
60487;BME280;46327;39.866;-0.072;2022-08-04T06:47:41;101492.34;;;28.88;34.38
60487;BME280;46327;39.866;-0.072;2022-08-04T06:50:10;101496.14;;;28.99;34.38
60487;BME280;46327;39.866;-0.072;2022-08-04T06:52:38;101490.01;;;28.75;34.36
60487;BME280;46327;39.866;-0.072;2022-08-04T06:55:07;101495.66;;;28.89;34.19
60487;BME280;46327;39.866;-0.072;2022-08-04T06:57:36;101498.29;;;29.15;34.14
60487;BME280;46327;39.866;-0.072;2022-08-04T07:00:06;101496.95;;;29.43;33.98
60487;BME280;46327;39.866;-0.072;2022-08-04T07:02:38;101497.32;;;29.26;33.98
60487;BME280;46327;39.866;-0.072;2022-08-04T07:05:07;101497.32;;;29.33;33.86
60487;BME280;46327;39.866;-0.072;2022-08-04T07:07:38;101497.82;;;29.23;33.84
60487;BME280;46327;39.866;-0.072;2022-08-04T07:10:07;101500.88;;;28.97;34.23
60487;BME280;46327;39.866;-0.072;2022-08-04T07:12:36;101499.38;;;29.55;34.41
60487;BME280;46327;39.866;-0.072;2022-08-04T07:15:05;101500.13;;;29.37;34.43
60487;BME280;46327;39.866;-0.072;2022-08-04T07:17:34;101500.88;;;29.50;34.38
60487;BME280;46327;39.866;-0.072;2022-08-04T07:20:02;101502.42;;;29.43;34.50
60487;BME280;46327;39.866;-0.072;2022-08-04T07:22:29;101500.82;;;29.59;34.59
60487;BME280;46327;39.866;-0.072;2022-08-04T07:24:58;101500.89;;;29.22;35.01
60487;BME280;46327;39.866;-0.072;2022-08-04T07:27:25;101505.07;;;28.98;35.56
60487;BME280;46327;39.866;-0.072;2022-08-04T07:29:54;101510.91;;;29.13;35.93
60487;BME280;46327;39.866;-0.072;2022-08-04T07:32:22;101511.68;;;28.71;36.72
60487;BME280;46327;39.866;-0.072;2022-08-04T07:34:50;101512.86;;;28.54;36.89
60487;BME280;46327;39.866;-0.072;2022-08-04T07:37:18;101512.00;;;28.47;37.16
60487;BME280;46327;39.866;-0.072;2022-08-04T07:39:45;101517.08;;;28.61;37.40
60487;BME280;46327;39.866;-0.072;2022-08-04T07:42:13;101515.68;;;28.55;37.55
60487;BME280;46327;39.866;-0.072;2022-08-04T07:44:44;101519.74;;;28.61;37.89
60487;BME280;46327;39.866;-0.072;2022-08-04T07:47:13;101522.14;;;28.66;37.85
60487;BME280;46327;39.866;-0.072;2022-08-04T07:49:41;101525.05;;;28.66;38.47
60487;BME280;46327;39.866;-0.072;2022-08-04T07:52:09;101526.78;;;28.65;39.87
60487;BME280;46327;39.866;-0.072;2022-08-04T07:54:37;101526.81;;;28.47;40.67
60487;BME280;46327;39.866;-0.072;2022-08-04T07:57:05;101527.12;;;28.70;44.01
60487;BME280;46327;39.866;-0.072;2022-08-04T07:59:32;101531.08;;;28.84;44.36
60487;BME280;46327;39.866;-0.072;2022-08-04T08:02:01;101534.68;;;29.33;44.49
60487;BME280;46327;39.866;-0.072;2022-08-04T08:04:29;101532.10;;;29.10;46.92
60487;BME280;46327;39.866;-0.072;2022-08-04T08:06:56;101534.81;;;28.77;45.88
60487;BME280;46327;39.866;-0.072;2022-08-04T08:09:24;101532.30;;;28.77;44.92
60487;BME280;46327;39.866;-0.072;2022-08-04T08:11:53;101531.53;;;28.99;45.78
60487;BME280;46327;39.866;-0.072;2022-08-04T08:14:20;101537.14;;;28.98;46.52
60487;BME280;46327;39.866;-0.072;2022-08-04T08:16:49;101538.28;;;29.01;47.73
60487;BME280;46327;39.866;-0.072;2022-08-04T08:19:16;101534.17;;;28.73;48.50
60487;BME280;46327;39.866;-0.072;2022-08-04T08:21:46;101535.16;;;28.75;49.08
60487;BME280;46327;39.866;-0.072;2022-08-04T08:24:14;101537.11;;;28.57;49.79
60487;BME280;46327;39.866;-0.072;2022-08-04T08:26:42;101535.42;;;29.14;51.30
60487;BME280;46327;39.866;-0.072;2022-08-04T08:29:10;101535.55;;;28.90;51.05
60487;BME280;46327;39.866;-0.072;2022-08-04T08:31:41;101532.68;;;29.16;50.98
60487;BME280;46327;39.866;-0.072;2022-08-04T08:34:10;101534.16;;;29.12;53.72
60487;BME280;46327;39.866;-0.072;2022-08-04T08:36:42;101533.13;;;29.07;52.10
60487;BME280;46327;39.866;-0.072;2022-08-04T08:39:15;101536.97;;;29.12;51.77
60487;BME280;46327;39.866;-0.072;2022-08-04T08:43:07;101536.77;;;29.22;51.47
60487;BME280;46327;39.866;-0.072;2022-08-04T08:45:50;101538.80;;;29.19;51.28
60487;BME280;46327;39.866;-0.072;2022-08-04T08:48:38;101539.87;;;29.20;53.09
60487;BME280;46327;39.866;-0.072;2022-08-04T08:51:19;101535.88;;;28.98;53.53
60487;BME280;46327;39.866;-0.072;2022-08-04T08:53:58;101535.47;;;29.08;53.02
60487;BME280;46327;39.866;-0.072;2022-08-04T08:56:38;101537.76;;;29.43;53.22
60487;BME280;46327;39.866;-0.072;2022-08-04T08:59:25;101537.53;;;28.89;53.34
60487;BME280;46327;39.866;-0.072;2022-08-04T09:02:07;101537.60;;;29.19;52.00
60487;BME280;46327;39.866;-0.072;2022-08-04T09:04:53;101533.44;;;29.89;52.97
60487;BME280;46327;39.866;-0.072;2022-08-04T09:07:42;101533.12;;;29.84;53.53
60487;BME280;46327;39.866;-0.072;2022-08-04T09:10:19;101534.19;;;29.13;52.80
60487;BME280;46327;39.866;-0.072;2022-08-04T09:12:55;101536.54;;;29.59;53.06
60487;BME280;46327;39.866;-0.072;2022-08-04T09:15:32;101533.42;;;29.52;53.61
60487;BME280;46327;39.866;-0.072;2022-08-04T09:18:06;101533.74;;;29.31;53.97
60487;BME280;46327;39.866;-0.072;2022-08-04T09:20:39;101531.81;;;29.35;53.70
60487;BME280;46327;39.866;-0.072;2022-08-04T09:23:17;101532.21;;;29.22;53.59
60487;BME280;46327;39.866;-0.072;2022-08-04T09:25:53;101536.37;;;29.84;53.55
60487;BME280;46327;39.866;-0.072;2022-08-04T09:28:25;101537.06;;;29.30;53.09
60487;BME280;46327;39.866;-0.072;2022-08-04T09:31:01;101536.22;;;29.51;53.42
60487;BME280;46327;39.866;-0.072;2022-08-04T09:33:42;101534.69;;;29.75;53.05
60487;BME280;46327;39.866;-0.072;2022-08-04T09:36:18;101536.43;;;29.34;52.84
60487;BME280;46327;39.866;-0.072;2022-08-04T09:38:54;101535.42;;;29.38;53.26
60487;BME280;46327;39.866;-0.072;2022-08-04T09:41:37;101537.32;;;29.34;54.04
60487;BME280;46327;39.866;-0.072;2022-08-04T09:44:22;101534.98;;;29.60;53.68
60487;BME280;46327;39.866;-0.072;2022-08-04T09:46:58;101535.98;;;29.31;53.62
60487;BME280;46327;39.866;-0.072;2022-08-04T09:49:37;101533.13;;;29.34;53.29
60487;BME280;46327;39.866;-0.072;2022-08-04T09:52:15;101534.16;;;29.70;53.41
60487;BME280;46327;39.866;-0.072;2022-08-04T09:54:54;101536.30;;;29.34;53.81
60487;BME280;46327;39.866;-0.072;2022-08-04T09:57:38;101535.03;;;29.24;53.57
60487;BME280;46327;39.866;-0.072;2022-08-04T10:00:09;101535.14;;;29.30;53.63
60487;BME280;46327;39.866;-0.072;2022-08-04T10:02:39;101541.45;;;29.16;53.89
60487;BME280;46327;39.866;-0.072;2022-08-04T10:05:14;101542.31;;;29.34;54.07
60487;BME280;46327;39.866;-0.072;2022-08-04T10:07:52;101538.04;;;29.57;54.19
60487;BME280;46327;39.866;-0.072;2022-08-04T10:10:32;101538.05;;;29.80;54.41
60487;BME280;46327;39.866;-0.072;2022-08-04T10:13:28;101535.43;;;29.46;54.61
60487;BME280;46327;39.866;-0.072;2022-08-04T10:16:22;101534.78;;;29.40;54.76
60487;BME280;46327;39.866;-0.072;2022-08-04T10:19:01;101534.91;;;29.66;53.72
60487;BME280;46327;39.866;-0.072;2022-08-04T10:21:41;101530.95;;;29.89;53.75
60487;BME280;46327;39.866;-0.072;2022-08-04T10:24:30;101533.54;;;29.35;55.25
60487;BME280;46327;39.866;-0.072;2022-08-04T10:27:06;101532.60;;;29.46;54.65
60487;BME280;46327;39.866;-0.072;2022-08-04T10:29:41;101534.47;;;29.55;54.33
60487;BME280;46327;39.866;-0.072;2022-08-04T10:32:14;101525.75;;;29.77;54.36
60487;BME280;46327;39.866;-0.072;2022-08-04T10:34:53;101525.32;;;29.60;54.89
60487;BME280;46327;39.866;-0.072;2022-08-04T10:37:28;101520.61;;;29.47;55.24
60487;BME280;46327;39.866;-0.072;2022-08-04T10:40:03;101517.90;;;29.81;54.23
60487;BME280;46327;39.866;-0.072;2022-08-04T10:42:31;101523.03;;;29.44;55.42
60487;BME280;46327;39.866;-0.072;2022-08-04T10:45:09;101522.18;;;29.56;55.29
60487;BME280;46327;39.866;-0.072;2022-08-04T10:47:44;101515.72;;;29.77;54.99
60487;BME280;46327;39.866;-0.072;2022-08-04T10:50:17;101514.48;;;29.89;55.01
60487;BME280;46327;39.866;-0.072;2022-08-04T10:52:54;101512.06;;;29.66;55.82
60487;BME280;46327;39.866;-0.072;2022-08-04T10:55:41;101510.76;;;30.08;56.59
60487;BME280;46327;39.866;-0.072;2022-08-04T10:58:17;101512.90;;;29.54;57.63
60487;BME280;46327;39.866;-0.072;2022-08-04T11:00:45;101508.79;;;29.51;57.68
60487;BME280;46327;39.866;-0.072;2022-08-04T11:03:20;101507.11;;;29.76;57.13
60487;BME280;46327;39.866;-0.072;2022-08-04T11:05:49;101508.31;;;30.04;57.54
60487;BME280;46327;39.866;-0.072;2022-08-04T11:08:22;101509.42;;;29.60;58.03
60487;BME280;46327;39.866;-0.072;2022-08-04T11:10:54;101511.61;;;29.93;57.29
60487;BME280;46327;39.866;-0.072;2022-08-04T11:13:28;101507.32;;;29.74;57.90
60487;BME280;46327;39.866;-0.072;2022-08-04T11:16:07;101507.56;;;29.86;57.39
60487;BME280;46327;39.866;-0.072;2022-08-04T11:18:42;101508.32;;;29.71;58.01
60487;BME280;46327;39.866;-0.072;2022-08-04T11:21:16;101509.91;;;29.80;57.75
60487;BME280;46327;39.866;-0.072;2022-08-04T11:23:52;101505.56;;;30.23;57.61
60487;BME280;46327;39.866;-0.072;2022-08-04T11:26:31;101508.74;;;29.88;58.34
60487;BME280;46327;39.866;-0.072;2022-08-04T11:29:08;101508.33;;;30.35;59.12
60487;BME280;46327;39.866;-0.072;2022-08-04T11:31:42;101508.26;;;29.81;59.29
60487;BME280;46327;39.866;-0.072;2022-08-04T11:34:17;101508.22;;;29.97;58.51
60487;BME280;46327;39.866;-0.072;2022-08-04T11:36:49;101507.05;;;30.04;58.57
60487;BME280;46327;39.866;-0.072;2022-08-04T11:39:25;101507.33;;;29.96;58.95
60487;BME280;46327;39.866;-0.072;2022-08-04T11:41:57;101506.32;;;29.76;59.03
60487;BME280;46327;39.866;-0.072;2022-08-04T11:44:31;101503.03;;;30.01;58.76
60487;BME280;46327;39.866;-0.072;2022-08-04T11:47:07;101505.03;;;30.31;58.20
60487;BME280;46327;39.866;-0.072;2022-08-04T11:49:40;101504.04;;;30.31;58.14
60487;BME280;46327;39.866;-0.072;2022-08-04T11:52:12;101502.29;;;30.57;57.87
60487;BME280;46327;39.866;-0.072;2022-08-04T11:54:41;101502.40;;;30.07;58.89
60487;BME280;46327;39.866;-0.072;2022-08-04T11:57:13;101500.35;;;29.72;59.22
60487;BME280;46327;39.866;-0.072;2022-08-04T11:59:42;101506.68;;;30.14;58.55
60487;BME280;46327;39.866;-0.072;2022-08-04T12:02:35;101503.13;;;30.16;58.65
60487;BME280;46327;39.866;-0.072;2022-08-04T12:05:09;101502.13;;;29.88;59.33
60487;BME280;46327;39.866;-0.072;2022-08-04T12:07:45;101497.90;;;30.24;58.70
60487;BME280;46327;39.866;-0.072;2022-08-04T12:10:25;101499.01;;;29.99;59.33
60487;BME280;46327;39.866;-0.072;2022-08-04T12:13:05;101500.84;;;30.02;60.00
60487;BME280;46327;39.866;-0.072;2022-08-04T12:15:39;101501.38;;;30.19;59.44
60487;BME280;46327;39.866;-0.072;2022-08-04T12:18:20;101501.02;;;30.06;59.62
60487;BME280;46327;39.866;-0.072;2022-08-04T12:20:50;101498.34;;;29.92;59.78
60487;BME280;46327;39.866;-0.072;2022-08-04T12:23:24;101498.73;;;30.20;59.80
60487;BME280;46327;39.866;-0.072;2022-08-04T12:25:55;101492.30;;;29.98;59.25
60487;BME280;46327;39.866;-0.072;2022-08-04T12:28:30;101494.42;;;30.04;58.96
60487;BME280;46327;39.866;-0.072;2022-08-04T12:31:02;101492.48;;;30.18;58.72
60487;BME280;46327;39.866;-0.072;2022-08-04T12:33:37;101492.64;;;29.71;58.74
60487;BME280;46327;39.866;-0.072;2022-08-04T12:36:16;101492.61;;;29.77;58.90
60487;BME280;46327;39.866;-0.072;2022-08-04T12:38:58;101491.61;;;29.84;58.99
60487;BME280;46327;39.866;-0.072;2022-08-04T12:41:31;101490.57;;;29.86;58.88
60487;BME280;46327;39.866;-0.072;2022-08-04T12:44:05;101488.96;;;30.02;58.79
60487;BME280;46327;39.866;-0.072;2022-08-04T12:46:33;101491.07;;;29.94;57.89
60487;BME280;46327;39.866;-0.072;2022-08-04T12:49:03;101490.07;;;30.31;57.20
60487;BME280;46327;39.866;-0.072;2022-08-04T12:51:39;101491.40;;;29.92;56.94
60487;BME280;46327;39.866;-0.072;2022-08-04T12:54:07;101490.70;;;30.01;56.43
60487;BME280;46327;39.866;-0.072;2022-08-04T12:56:35;101484.52;;;29.94;55.18
60487;BME280;46327;39.866;-0.072;2022-08-04T12:59:06;101481.81;;;30.07;55.12
60487;BME280;46327;39.866;-0.072;2022-08-04T13:01:34;101481.42;;;30.10;55.12
60487;BME280;46327;39.866;-0.072;2022-08-04T13:04:09;101486.01;;;29.90;55.70
60487;BME280;46327;39.866;-0.072;2022-08-04T13:06:38;101486.01;;;29.86;55.56
60487;BME280;46327;39.866;-0.072;2022-08-04T13:09:10;101482.90;;;30.28;55.71
60487;BME280;46327;39.866;-0.072;2022-08-04T13:11:43;101484.01;;;29.81;55.70
60487;BME280;46327;39.866;-0.072;2022-08-04T13:14:14;101483.51;;;29.86;55.59
60487;BME280;46327;39.866;-0.072;2022-08-04T13:16:43;101475.97;;;30.09;55.29
60487;BME280;46327;39.866;-0.072;2022-08-04T13:19:10;101474.81;;;30.07;54.92
60487;BME280;46327;39.866;-0.072;2022-08-04T13:21:42;101473.58;;;29.96;54.78
60487;BME280;46327;39.866;-0.072;2022-08-04T13:24:13;101475.26;;;29.87;54.42
60487;BME280;46327;39.866;-0.072;2022-08-04T13:26:50;101469.35;;;30.19;53.34
60487;BME280;46327;39.866;-0.072;2022-08-04T13:29:22;101469.06;;;30.07;54.32
60487;BME280;46327;39.866;-0.072;2022-08-04T13:31:50;101470.58;;;30.04;54.05
60487;BME280;46327;39.866;-0.072;2022-08-04T13:34:19;101469.89;;;29.98;54.51
60487;BME280;46327;39.866;-0.072;2022-08-04T13:36:48;101469.93;;;30.22;54.13